Airfield :
LOGIN :

Register | Disclaimer

   EN    FR    IT 

 










Legend :    VFR   Marginal VFR   IFR   Intensive IFR   Very Intensive IFR
Visi :
Ceiling :
>= 8 km
>= 3000ft
5 to 8 km
1000 to 3000 ft
1500m to 5 km
500 to 1000 ft
800 to 1500m
200 to 500 ft
< 800m
< 200 ft
Symbols :   Thunderstorms  Fog  Heavy snow  Heavy precipitations  Wind > 20 kt
SIGMETs :     Misc.  Thunderstorms  Icing  Turbulence  Mountain Waves  Volcanic Ashes







- Airport Elevation : 779 ft
- IATA code : CMF
- Download approach charts


LFLB - Chambery / Aix-Les-Bains

CURRENT METAR :
  • 221630Z AUTO 31004KT 280V010 CAVOK 18/01 Q1026 NOSIG

EXPIRED METARs :
  • 221600Z AUTO 33005KT CAVOK 18/03 Q1026 NOSIG
  • 221530Z AUTO 34006KT CAVOK 18/02 Q1026 NOSIG
  • 221500Z AUTO 33006KT CAVOK 19/02 Q1026 NOSIG
  • 221400Z AUTO 35004KT CAVOK 17/01 Q1027 NOSIG

TAF TAF LFLB
Valid from the 22 at 12:00 until the 23 at 12:00 UTC


221100Z 2212/2312 35006KT CAVOK
BECMG 2218/2220 VRB03KT
PROB30
TEMPO 2304/2308 2000 MIFG
BECMG 2309/2311 35010KT
No reported NOTAMs for that airfield.



MET'MAP, your aeronautical weather chart ! - Copyright ORBIFLY December 2007 - Disclaimer

ORBIFLY MET'MAP TEAM :

Programming & Development : Alexandra Zaïnal
Concept & Development : Baudouin d'Aumeries
Co-Development & Prog : Marc-Olivier Méhu
Technical & hardware support : Manuel Goepfert

Contact : metmap@orbifly.com




SOURCES & CREDITS :

   NOAA